sensor_id;sensor_type;location;lat;lon;timestamp;P1;durP1;ratioP1;P2;durP2;ratioP2
22660;SDS011;11497;52.222;21.246;2022-09-13T00:01:11;46.67;;;29.08;;
22660;SDS011;11497;52.222;21.246;2022-09-13T00:03:40;46.25;;;27.20;;
22660;SDS011;11497;52.222;21.246;2022-09-13T00:06:13;45.80;;;26.58;;
22660;SDS011;11497;52.222;21.246;2022-09-13T00:08:47;34.60;;;23.30;;
22660;SDS011;11497;52.222;21.246;2022-09-13T00:11:23;40.72;;;25.83;;
22660;SDS011;11497;52.222;21.246;2022-09-13T00:13:55;46.30;;;26.45;;
22660;SDS011;11497;52.222;21.246;2022-09-13T00:16:25;40.60;;;24.90;;
22660;SDS011;11497;52.222;21.246;2022-09-13T00:18:54;36.90;;;24.30;;
22660;SDS011;11497;52.222;21.246;2022-09-13T00:21:23;43.33;;;27.45;;
22660;SDS011;11497;52.222;21.246;2022-09-13T00:23:52;41.05;;;25.77;;
22660;SDS011;11497;52.222;21.246;2022-09-13T00:26:22;38.20;;;24.20;;
22660;SDS011;11497;52.222;21.246;2022-09-13T00:28:55;34.20;;;22.77;;
22660;SDS011;11497;52.222;21.246;2022-09-13T00:31:26;33.92;;;21.92;;
22660;SDS011;11497;52.222;21.246;2022-09-13T00:33:57;35.13;;;22.67;;
22660;SDS011;11497;52.222;21.246;2022-09-13T00:36:26;37.15;;;22.88;;
22660;SDS011;11497;52.222;21.246;2022-09-13T00:38:54;37.17;;;22.73;;
22660;SDS011;11497;52.222;21.246;2022-09-13T00:41:23;33.35;;;22.77;;
22660;SDS011;11497;52.222;21.246;2022-09-13T00:43:52;32.95;;;21.15;;
22660;SDS011;11497;52.222;21.246;2022-09-13T00:46:41;36.38;;;22.58;;
22660;SDS011;11497;52.222;21.246;2022-09-13T00:51:58;34.30;;;21.20;;
22660;SDS011;11497;52.222;21.246;2022-09-13T00:54:33;29.45;;;20.20;;
22660;SDS011;11497;52.222;21.246;2022-09-13T00:57:06;29.85;;;21.30;;
22660;SDS011;11497;52.222;21.246;2022-09-13T00:59:41;34.08;;;21.40;;
22660;SDS011;11497;52.222;21.246;2022-09-13T01:02:15;34.70;;;20.98;;
22660;SDS011;11497;52.222;21.246;2022-09-13T01:04:43;32.53;;;20.63;;
22660;SDS011;11497;52.222;21.246;2022-09-13T01:07:12;34.05;;;21.00;;
22660;SDS011;11497;52.222;21.246;2022-09-13T01:09:42;33.50;;;20.55;;
22660;SDS011;11497;52.222;21.246;2022-09-13T01:12:13;36.78;;;21.75;;
22660;SDS011;11497;52.222;21.246;2022-09-13T01:14:51;38.22;;;20.67;;
22660;SDS011;11497;52.222;21.246;2022-09-13T01:17:23;36.90;;;19.73;;
22660;SDS011;11497;52.222;21.246;2022-09-13T01:19:53;34.67;;;19.88;;
22660;SDS011;11497;52.222;21.246;2022-09-13T01:22:38;35.95;;;20.25;;
22660;SDS011;11497;52.222;21.246;2022-09-13T01:31:24;32.10;;;18.77;;
22660;SDS011;11497;52.222;21.246;2022-09-13T01:36:56;34.08;;;19.45;;
22660;SDS011;11497;52.222;21.246;2022-09-13T01:48:17;29.15;;;16.17;;
22660;SDS011;11497;52.222;21.246;2022-09-13T01:59:48;24.38;;;16.10;;
22660;SDS011;11497;52.222;21.246;2022-09-13T02:02:33;29.85;;;16.77;;
22660;SDS011;11497;52.222;21.246;2022-09-13T02:05:13;26.85;;;16.13;;
22660;SDS011;11497;52.222;21.246;2022-09-13T02:07:44;26.23;;;14.80;;
22660;SDS011;11497;52.222;21.246;2022-09-13T02:10:24;25.13;;;14.82;;
22660;SDS011;11497;52.222;21.246;2022-09-13T02:12:59;25.00;;;15.38;;
22660;SDS011;11497;52.222;21.246;2022-09-13T02:15:37;25.27;;;15.10;;
22660;SDS011;11497;52.222;21.246;2022-09-13T02:18:15;25.65;;;15.80;;
22660;SDS011;11497;52.222;21.246;2022-09-13T02:20:47;27.17;;;16.23;;
22660;SDS011;11497;52.222;21.246;2022-09-13T02:23:20;26.48;;;15.73;;
22660;SDS011;11497;52.222;21.246;2022-09-13T02:25:57;23.40;;;14.75;;
22660;SDS011;11497;52.222;21.246;2022-09-13T02:28:34;28.85;;;15.43;;
22660;SDS011;11497;52.222;21.246;2022-09-13T02:31:06;23.58;;;15.27;;
22660;SDS011;11497;52.222;21.246;2022-09-13T02:33:44;24.88;;;15.45;;
22660;SDS011;11497;52.222;21.246;2022-09-13T02:36:19;26.48;;;15.50;;
22660;SDS011;11497;52.222;21.246;2022-09-13T02:38:51;26.88;;;16.73;;
22660;SDS011;11497;52.222;21.246;2022-09-13T02:41:29;27.33;;;17.58;;
22660;SDS011;11497;52.222;21.246;2022-09-13T02:49:28;35.38;;;21.13;;
22660;SDS011;11497;52.222;21.246;2022-09-13T02:55:15;44.13;;;22.83;;
22660;SDS011;11497;52.222;21.246;2022-09-13T02:58:13;67.13;;;22.63;;
22660;SDS011;11497;52.222;21.246;2022-09-13T03:00:53;42.70;;;21.73;;
22660;SDS011;11497;52.222;21.246;2022-09-13T03:03:21;68.57;;;22.67;;
22660;SDS011;11497;52.222;21.246;2022-09-13T03:05:51;54.85;;;21.63;;
22660;SDS011;11497;52.222;21.246;2022-09-13T03:08:19;55.63;;;23.40;;
22660;SDS011;11497;52.222;21.246;2022-09-13T03:11:03;49.72;;;23.42;;
22660;SDS011;11497;52.222;21.246;2022-09-13T03:30:09;36.50;;;20.00;;
22660;SDS011;11497;52.222;21.246;2022-09-13T03:32:41;29.45;;;18.63;;
22660;SDS011;11497;52.222;21.246;2022-09-13T03:35:38;30.35;;;18.35;;
22660;SDS011;11497;52.222;21.246;2022-09-13T03:38:07;22.73;;;16.67;;
22660;SDS011;11497;52.222;21.246;2022-09-13T03:43:24;34.97;;;19.30;;
22660;SDS011;11497;52.222;21.246;2022-09-13T03:45:56;32.28;;;19.70;;
22660;SDS011;11497;52.222;21.246;2022-09-13T03:48:30;27.45;;;18.02;;
22660;SDS011;11497;52.222;21.246;2022-09-13T03:51:03;35.67;;;19.20;;
22660;SDS011;11497;52.222;21.246;2022-09-13T03:53:32;50.25;;;21.35;;
22660;SDS011;11497;52.222;21.246;2022-09-13T03:56:12;45.22;;;20.38;;
22660;SDS011;11497;52.222;21.246;2022-09-13T03:58:45;59.97;;;21.35;;
22660;SDS011;11497;52.222;21.246;2022-09-13T04:01:16;37.80;;;19.33;;
22660;SDS011;11497;52.222;21.246;2022-09-13T04:03:48;41.03;;;20.35;;
22660;SDS011;11497;52.222;21.246;2022-09-13T04:06:22;62.22;;;24.25;;
22660;SDS011;11497;52.222;21.246;2022-09-13T04:08:50;54.38;;;24.20;;
22660;SDS011;11497;52.222;21.246;2022-09-13T04:11:18;76.60;;;23.73;;
22660;SDS011;11497;52.222;21.246;2022-09-13T04:13:47;101.97;;;24.67;;
22660;SDS011;11497;52.222;21.246;2022-09-13T04:16:15;47.15;;;23.00;;
22660;SDS011;11497;52.222;21.246;2022-09-13T04:18:43;38.10;;;20.13;;
22660;SDS011;11497;52.222;21.246;2022-09-13T04:21:11;39.15;;;20.67;;
22660;SDS011;11497;52.222;21.246;2022-09-13T04:23:39;37.50;;;18.98;;
22660;SDS011;11497;52.222;21.246;2022-09-13T04:26:06;38.80;;;19.50;;
22660;SDS011;11497;52.222;21.246;2022-09-13T04:28:35;39.30;;;20.38;;
22660;SDS011;11497;52.222;21.246;2022-09-13T04:31:03;69.03;;;22.02;;
22660;SDS011;11497;52.222;21.246;2022-09-13T04:33:30;61.55;;;22.63;;
22660;SDS011;11497;52.222;21.246;2022-09-13T04:35:58;63.85;;;21.88;;
22660;SDS011;11497;52.222;21.246;2022-09-13T04:38:26;63.72;;;22.08;;
22660;SDS011;11497;52.222;21.246;2022-09-13T04:40:56;86.13;;;23.27;;
22660;SDS011;11497;52.222;21.246;2022-09-13T04:43:24;70.90;;;19.05;;
22660;SDS011;11497;52.222;21.246;2022-09-13T04:45:52;81.28;;;20.63;;
22660;SDS011;11497;52.222;21.246;2022-09-13T04:48:19;76.75;;;21.67;;
22660;SDS011;11497;52.222;21.246;2022-09-13T04:50:47;80.90;;;24.88;;
22660;SDS011;11497;52.222;21.246;2022-09-13T04:53:15;56.97;;;21.77;;
22660;SDS011;11497;52.222;21.246;2022-09-13T04:55:43;50.75;;;21.13;;
22660;SDS011;11497;52.222;21.246;2022-09-13T04:58:11;47.95;;;22.27;;
22660;SDS011;11497;52.222;21.246;2022-09-13T05:00:39;88.22;;;24.58;;
22660;SDS011;11497;52.222;21.246;2022-09-13T05:03:07;71.78;;;21.30;;
22660;SDS011;11497;52.222;21.246;2022-09-13T05:05:34;64.82;;;18.88;;
22660;SDS011;11497;52.222;21.246;2022-09-13T05:08:02;72.70;;;19.70;;
22660;SDS011;11497;52.222;21.246;2022-09-13T05:10:30;95.45;;;22.00;;
22660;SDS011;11497;52.222;21.246;2022-09-13T05:12:57;76.00;;;23.13;;
22660;SDS011;11497;52.222;21.246;2022-09-13T05:15:25;63.38;;;18.42;;
22660;SDS011;11497;52.222;21.246;2022-09-13T05:17:53;75.57;;;20.63;;
22660;SDS011;11497;52.222;21.246;2022-09-13T05:20:21;84.53;;;22.92;;
22660;SDS011;11497;52.222;21.246;2022-09-13T05:22:49;64.60;;;20.13;;
22660;SDS011;11497;52.222;21.246;2022-09-13T05:25:16;55.17;;;20.63;;
22660;SDS011;11497;52.222;21.246;2022-09-13T05:27:49;46.63;;;19.53;;
22660;SDS011;11497;52.222;21.246;2022-09-13T05:30:17;65.20;;;20.90;;
22660;SDS011;11497;52.222;21.246;2022-09-13T05:32:45;61.47;;;20.35;;
22660;SDS011;11497;52.222;21.246;2022-09-13T05:35:12;61.42;;;20.83;;
22660;SDS011;11497;52.222;21.246;2022-09-13T05:37:40;51.03;;;18.48;;
22660;SDS011;11497;52.222;21.246;2022-09-13T05:40:08;44.20;;;18.23;;
22660;SDS011;11497;52.222;21.246;2022-09-13T05:42:38;44.20;;;19.08;;
22660;SDS011;11497;52.222;21.246;2022-09-13T05:45:06;45.17;;;19.35;;
22660;SDS011;11497;52.222;21.246;2022-09-13T05:47:34;42.58;;;18.48;;
22660;SDS011;11497;52.222;21.246;2022-09-13T05:50:02;37.67;;;19.13;;
22660;SDS011;11497;52.222;21.246;2022-09-13T05:52:51;50.25;;;19.30;;
22660;SDS011;11497;52.222;21.246;2022-09-13T05:55:20;32.80;;;18.83;;
22660;SDS011;11497;52.222;21.246;2022-09-13T05:57:48;63.17;;;19.40;;
22660;SDS011;11497;52.222;21.246;2022-09-13T06:00:16;53.75;;;19.52;;
22660;SDS011;11497;52.222;21.246;2022-09-13T06:02:45;42.08;;;18.55;;
22660;SDS011;11497;52.222;21.246;2022-09-13T06:05:13;54.75;;;18.35;;
22660;SDS011;11497;52.222;21.246;2022-09-13T06:07:41;41.65;;;17.10;;
22660;SDS011;11497;52.222;21.246;2022-09-13T06:10:09;58.53;;;17.33;;
22660;SDS011;11497;52.222;21.246;2022-09-13T06:12:37;46.75;;;16.15;;
22660;SDS011;11497;52.222;21.246;2022-09-13T06:15:05;33.22;;;14.77;;
22660;SDS011;11497;52.222;21.246;2022-09-13T06:17:34;77.80;;;15.68;;
22660;SDS011;11497;52.222;21.246;2022-09-13T06:20:02;31.30;;;13.90;;
22660;SDS011;11497;52.222;21.246;2022-09-13T06:22:30;44.72;;;13.57;;
22660;SDS011;11497;52.222;21.246;2022-09-13T06:25:01;61.38;;;14.80;;
22660;SDS011;11497;52.222;21.246;2022-09-13T06:27:29;59.78;;;15.32;;
22660;SDS011;11497;52.222;21.246;2022-09-13T06:29:57;60.83;;;13.40;;
22660;SDS011;11497;52.222;21.246;2022-09-13T06:32:25;35.78;;;13.10;;
22660;SDS011;11497;52.222;21.246;2022-09-13T06:34:52;49.45;;;13.15;;
22660;SDS011;11497;52.222;21.246;2022-09-13T06:37:20;62.83;;;13.52;;
22660;SDS011;11497;52.222;21.246;2022-09-13T06:39:48;48.20;;;13.60;;
22660;SDS011;11497;52.222;21.246;2022-09-13T06:42:15;40.28;;;15.52;;
22660;SDS011;11497;52.222;21.246;2022-09-13T06:44:43;99.55;;;16.17;;
22660;SDS011;11497;52.222;21.246;2022-09-13T06:47:14;23.40;;;13.95;;
22660;SDS011;11497;52.222;21.246;2022-09-13T06:49:41;21.75;;;13.90;;
22660;SDS011;11497;52.222;21.246;2022-09-13T06:52:09;29.48;;;13.95;;
22660;SDS011;11497;52.222;21.246;2022-09-13T06:54:37;19.40;;;14.20;;
22660;SDS011;11497;52.222;21.246;2022-09-13T06:57:05;47.42;;;14.13;;
22660;SDS011;11497;52.222;21.246;2022-09-13T06:59:32;26.85;;;14.80;;
22660;SDS011;11497;52.222;21.246;2022-09-13T07:02:01;28.92;;;14.75;;
22660;SDS011;11497;52.222;21.246;2022-09-13T07:04:29;21.25;;;14.35;;
22660;SDS011;11497;52.222;21.246;2022-09-13T07:06:57;23.02;;;14.23;;
22660;SDS011;11497;52.222;21.246;2022-09-13T07:09:26;26.27;;;14.70;;
22660;SDS011;11497;52.222;21.246;2022-09-13T07:11:54;24.33;;;15.32;;
22660;SDS011;11497;52.222;21.246;2022-09-13T07:14:23;28.85;;;15.00;;
22660;SDS011;11497;52.222;21.246;2022-09-13T07:16:55;18.80;;;14.57;;
22660;SDS011;11497;52.222;21.246;2022-09-13T07:19:23;20.30;;;15.45;;
22660;SDS011;11497;52.222;21.246;2022-09-13T07:21:53;21.05;;;14.80;;
22660;SDS011;11497;52.222;21.246;2022-09-13T07:24:22;17.60;;;14.23;;
22660;SDS011;11497;52.222;21.246;2022-09-13T07:26:51;17.80;;;14.30;;
22660;SDS011;11497;52.222;21.246;2022-09-13T07:29:20;17.10;;;13.48;;
22660;SDS011;11497;52.222;21.246;2022-09-13T07:31:50;17.27;;;13.85;;
22660;SDS011;11497;52.222;21.246;2022-09-13T07:34:21;16.38;;;12.82;;
22660;SDS011;11497;52.222;21.246;2022-09-13T07:36:50;17.60;;;13.55;;
22660;SDS011;11497;52.222;21.246;2022-09-13T07:39:18;14.82;;;12.77;;
22660;SDS011;11497;52.222;21.246;2022-09-13T07:41:49;19.75;;;14.35;;
22660;SDS011;11497;52.222;21.246;2022-09-13T07:44:17;15.77;;;12.20;;
22660;SDS011;11497;52.222;21.246;2022-09-13T07:46:45;14.98;;;11.65;;
22660;SDS011;11497;52.222;21.246;2022-09-13T07:49:15;11.30;;;9.68;;
22660;SDS011;11497;52.222;21.246;2022-09-13T07:51:44;11.10;;;9.30;;
22660;SDS011;11497;52.222;21.246;2022-09-13T07:54:13;11.15;;;9.35;;
22660;SDS011;11497;52.222;21.246;2022-09-13T07:56:44;10.00;;;8.07;;
22660;SDS011;11497;52.222;21.246;2022-09-13T07:59:16;10.93;;;8.80;;
22660;SDS011;11497;52.222;21.246;2022-09-13T08:01:45;9.57;;;8.02;;
22660;SDS011;11497;52.222;21.246;2022-09-13T08:04:16;9.82;;;8.52;;
22660;SDS011;11497;52.222;21.246;2022-09-13T08:06:45;12.38;;;8.45;;
22660;SDS011;11497;52.222;21.246;2022-09-13T08:09:14;10.93;;;9.23;;
22660;SDS011;11497;52.222;21.246;2022-09-13T08:11:51;10.80;;;9.32;;
22660;SDS011;11497;52.222;21.246;2022-09-13T08:14:20;11.05;;;9.40;;
22660;SDS011;11497;52.222;21.246;2022-09-13T08:16:53;10.20;;;9.10;;
22660;SDS011;11497;52.222;21.246;2022-09-13T08:19:22;12.35;;;9.65;;
22660;SDS011;11497;52.222;21.246;2022-09-13T08:21:50;13.32;;;9.77;;
22660;SDS011;11497;52.222;21.246;2022-09-13T08:24:18;12.55;;;9.80;;
22660;SDS011;11497;52.222;21.246;2022-09-13T08:26:47;12.40;;;10.05;;
22660;SDS011;11497;52.222;21.246;2022-09-13T08:29:17;13.60;;;9.25;;
22660;SDS011;11497;52.222;21.246;2022-09-13T08:31:45;13.80;;;9.55;;
22660;SDS011;11497;52.222;21.246;2022-09-13T08:34:14;11.70;;;8.43;;
22660;SDS011;11497;52.222;21.246;2022-09-13T08:36:42;11.30;;;8.60;;
22660;SDS011;11497;52.222;21.246;2022-09-13T08:39:10;12.52;;;8.18;;
22660;SDS011;11497;52.222;21.246;2022-09-13T08:41:47;11.25;;;6.90;;
22660;SDS011;11497;52.222;21.246;2022-09-13T08:44:41;9.95;;;7.57;;
22660;SDS011;11497;52.222;21.246;2022-09-13T08:57:59;10.43;;;6.50;;
22660;SDS011;11497;52.222;21.246;2022-09-13T09:00:52;8.75;;;6.03;;
22660;SDS011;11497;52.222;21.246;2022-09-13T09:06:36;6.45;;;5.68;;
22660;SDS011;11497;52.222;21.246;2022-09-13T09:09:05;6.55;;;4.20;;
22660;SDS011;11497;52.222;21.246;2022-09-13T09:17:06;6.93;;;3.90;;
22660;SDS011;11497;52.222;21.246;2022-09-13T09:19:45;5.47;;;3.80;;
22660;SDS011;11497;52.222;21.246;2022-09-13T09:22:33;3.40;;;3.10;;
22660;SDS011;11497;52.222;21.246;2022-09-13T09:25:01;4.45;;;2.97;;
22660;SDS011;11497;52.222;21.246;2022-09-13T09:27:30;3.38;;;3.08;;
22660;SDS011;11497;52.222;21.246;2022-09-13T09:29:59;5.22;;;3.53;;
22660;SDS011;11497;52.222;21.246;2022-09-13T09:32:35;4.68;;;2.58;;
22660;SDS011;11497;52.222;21.246;2022-09-13T09:41:03;5.57;;;2.67;;
22660;SDS011;11497;52.222;21.246;2022-09-13T09:43:41;6.47;;;2.40;;
22660;SDS011;11497;52.222;21.246;2022-09-13T09:46:37;4.53;;;2.58;;
22660;SDS011;11497;52.222;21.246;2022-09-13T09:52:08;5.82;;;3.63;;
22660;SDS011;11497;52.222;21.246;2022-09-13T09:54:40;6.17;;;3.43;;
22660;SDS011;11497;52.222;21.246;2022-09-13T09:57:08;4.97;;;3.58;;
22660;SDS011;11497;52.222;21.246;2022-09-13T09:59:37;5.35;;;3.40;;
22660;SDS011;11497;52.222;21.246;2022-09-13T10:02:13;7.30;;;3.90;;
22660;SDS011;11497;52.222;21.246;2022-09-13T10:04:56;5.78;;;4.10;;
22660;SDS011;11497;52.222;21.246;2022-09-13T10:07:29;6.00;;;4.47;;
22660;SDS011;11497;52.222;21.246;2022-09-13T10:12:35;5.28;;;4.22;;
22660;SDS011;11497;52.222;21.246;2022-09-13T10:15:11;7.90;;;4.75;;
22660;SDS011;11497;52.222;21.246;2022-09-13T10:21:19;6.75;;;4.53;;
22660;SDS011;11497;52.222;21.246;2022-09-13T10:23:49;6.18;;;4.22;;
22660;SDS011;11497;52.222;21.246;2022-09-13T10:26:21;6.13;;;4.60;;
22660;SDS011;11497;52.222;21.246;2022-09-13T10:29:12;5.15;;;4.57;;
22660;SDS011;11497;52.222;21.246;2022-09-13T10:31:43;9.43;;;4.93;;
22660;SDS011;11497;52.222;21.246;2022-09-13T10:34:18;7.13;;;5.00;;
22660;SDS011;11497;52.222;21.246;2022-09-13T10:37:02;6.57;;;4.40;;
22660;SDS011;11497;52.222;21.246;2022-09-13T10:39:37;10.55;;;5.10;;
22660;SDS011;11497;52.222;21.246;2022-09-13T10:42:27;7.97;;;5.00;;
22660;SDS011;11497;52.222;21.246;2022-09-13T10:45:06;7.47;;;5.50;;
22660;SDS011;11497;52.222;21.246;2022-09-13T10:57:47;7.40;;;5.25;;
22660;SDS011;11497;52.222;21.246;2022-09-13T11:00:17;8.55;;;5.53;;
22660;SDS011;11497;52.222;21.246;2022-09-13T11:06:00;6.45;;;5.20;;
22660;SDS011;11497;52.222;21.246;2022-09-13T11:11:51;5.53;;;4.70;;
22660;SDS011;11497;52.222;21.246;2022-09-13T11:14:25;6.47;;;4.95;;
22660;SDS011;11497;52.222;21.246;2022-09-13T11:20:08;5.38;;;4.80;;
22660;SDS011;11497;52.222;21.246;2022-09-13T11:31:11;11.18;;;4.57;;
22660;SDS011;11497;52.222;21.246;2022-09-13T11:33:57;6.75;;;3.72;;
22660;SDS011;11497;52.222;21.246;2022-09-13T11:44:34;4.15;;;3.50;;
22660;SDS011;11497;52.222;21.246;2022-09-13T11:47:30;5.07;;;3.80;;
22660;SDS011;11497;52.222;21.246;2022-09-13T11:55:34;5.28;;;3.90;;
22660;SDS011;11497;52.222;21.246;2022-09-13T12:00:44;5.72;;;3.60;;
22660;SDS011;11497;52.222;21.246;2022-09-13T12:03:22;6.45;;;3.70;;
22660;SDS011;11497;52.222;21.246;2022-09-13T12:06:23;5.90;;;4.00;;
22660;SDS011;11497;52.222;21.246;2022-09-13T12:11:38;5.97;;;3.55;;
22660;SDS011;11497;52.222;21.246;2022-09-13T12:14:22;7.13;;;3.40;;
22660;SDS011;11497;52.222;21.246;2022-09-13T12:16:57;9.93;;;3.63;;
22660;SDS011;11497;52.222;21.246;2022-09-13T12:19:40;4.18;;;2.88;;
22660;SDS011;11497;52.222;21.246;2022-09-13T12:22:12;4.85;;;2.88;;
22660;SDS011;11497;52.222;21.246;2022-09-13T12:30:08;5.90;;;3.17;;
22660;SDS011;11497;52.222;21.246;2022-09-13T12:32:46;4.85;;;3.47;;
22660;SDS011;11497;52.222;21.246;2022-09-13T13:02:28;3.70;;;3.30;;
22660;SDS011;11497;52.222;21.246;2022-09-13T13:05:05;7.28;;;3.70;;
22660;SDS011;11497;52.222;21.246;2022-09-13T13:07:48;4.65;;;3.40;;
22660;SDS011;11497;52.222;21.246;2022-09-13T13:10:22;5.43;;;3.53;;
22660;SDS011;11497;52.222;21.246;2022-09-13T13:13:12;3.97;;;3.17;;
22660;SDS011;11497;52.222;21.246;2022-09-13T13:18:28;9.52;;;3.17;;
22660;SDS011;11497;52.222;21.246;2022-09-13T13:23:28;5.70;;;3.28;;
22660;SDS011;11497;52.222;21.246;2022-09-13T13:39:11;4.65;;;3.00;;
22660;SDS011;11497;52.222;21.246;2022-09-13T13:46:53;5.35;;;3.33;;
22660;SDS011;11497;52.222;21.246;2022-09-13T14:16:51;4.38;;;3.67;;
22660;SDS011;11497;52.222;21.246;2022-09-13T14:19:59;6.53;;;4.20;;
22660;SDS011;11497;52.222;21.246;2022-09-13T14:25:17;6.20;;;3.60;;
22660;SDS011;11497;52.222;21.246;2022-09-13T14:27:50;6.57;;;4.10;;
22660;SDS011;11497;52.222;21.246;2022-09-13T14:30:23;6.40;;;3.72;;
22660;SDS011;11497;52.222;21.246;2022-09-13T14:32:57;6.63;;;4.03;;
22660;SDS011;11497;52.222;21.246;2022-09-13T14:35:46;5.20;;;3.75;;
22660;SDS011;11497;52.222;21.246;2022-09-13T14:38:23;4.93;;;3.75;;
22660;SDS011;11497;52.222;21.246;2022-09-13T14:41:09;7.30;;;4.00;;
22660;SDS011;11497;52.222;21.246;2022-09-13T14:43:40;5.03;;;3.92;;
22660;SDS011;11497;52.222;21.246;2022-09-13T14:46:23;9.75;;;3.88;;
22660;SDS011;11497;52.222;21.246;2022-09-13T14:49:08;5.85;;;3.90;;
22660;SDS011;11497;52.222;21.246;2022-09-13T14:54:17;7.75;;;4.43;;
22660;SDS011;11497;52.222;21.246;2022-09-13T14:57:17;7.20;;;4.95;;
22660;SDS011;11497;52.222;21.246;2022-09-13T15:00:06;6.80;;;4.20;;
22660;SDS011;11497;52.222;21.246;2022-09-13T15:05:19;8.07;;;4.80;;
22660;SDS011;11497;52.222;21.246;2022-09-13T15:07:49;6.32;;;4.43;;
22660;SDS011;11497;52.222;21.246;2022-09-13T15:10:25;6.97;;;4.22;;
22660;SDS011;11497;52.222;21.246;2022-09-13T15:20:56;9.55;;;4.90;;
22660;SDS011;11497;52.222;21.246;2022-09-13T15:23:49;8.25;;;4.35;;
22660;SDS011;11497;52.222;21.246;2022-09-13T15:28:55;9.50;;;4.85;;
22660;SDS011;11497;52.222;21.246;2022-09-13T15:31:29;5.90;;;4.47;;
22660;SDS011;11497;52.222;21.246;2022-09-13T15:36:47;5.75;;;4.70;;
22660;SDS011;11497;52.222;21.246;2022-09-13T15:39:46;9.65;;;4.65;;
22660;SDS011;11497;52.222;21.246;2022-09-13T15:42:16;5.90;;;4.57;;
22660;SDS011;11497;52.222;21.246;2022-09-13T15:44:44;10.43;;;4.88;;
22660;SDS011;11497;52.222;21.246;2022-09-13T15:47:16;11.30;;;5.60;;
22660;SDS011;11497;52.222;21.246;2022-09-13T15:49:48;5.53;;;4.95;;
22660;SDS011;11497;52.222;21.246;2022-09-13T15:52:18;5.65;;;5.00;;
22660;SDS011;11497;52.222;21.246;2022-09-13T15:54:47;8.10;;;5.53;;
22660;SDS011;11497;52.222;21.246;2022-09-13T15:59:52;7.47;;;5.40;;
22660;SDS011;11497;52.222;21.246;2022-09-13T16:02:25;7.07;;;5.55;;
22660;SDS011;11497;52.222;21.246;2022-09-13T16:04:56;9.80;;;5.75;;
22660;SDS011;11497;52.222;21.246;2022-09-13T16:07:24;7.20;;;6.10;;
22660;SDS011;11497;52.222;21.246;2022-09-13T16:09:52;7.28;;;5.95;;
22660;SDS011;11497;52.222;21.246;2022-09-13T16:12:20;9.60;;;6.47;;
22660;SDS011;11497;52.222;21.246;2022-09-13T16:14:50;9.98;;;6.15;;
22660;SDS011;11497;52.222;21.246;2022-09-13T16:17:20;7.55;;;5.90;;
22660;SDS011;11497;52.222;21.246;2022-09-13T16:19:51;8.35;;;6.80;;
22660;SDS011;11497;52.222;21.246;2022-09-13T16:22:19;9.02;;;6.30;;
22660;SDS011;11497;52.222;21.246;2022-09-13T16:24:48;8.18;;;6.55;;
22660;SDS011;11497;52.222;21.246;2022-09-13T16:27:17;8.05;;;6.55;;
22660;SDS011;11497;52.222;21.246;2022-09-13T16:29:45;11.40;;;6.50;;
22660;SDS011;11497;52.222;21.246;2022-09-13T16:32:14;8.80;;;6.18;;
22660;SDS011;11497;52.222;21.246;2022-09-13T16:34:42;8.60;;;6.45;;
22660;SDS011;11497;52.222;21.246;2022-09-13T16:37:13;8.15;;;6.38;;
22660;SDS011;11497;52.222;21.246;2022-09-13T16:39:43;10.02;;;6.15;;
22660;SDS011;11497;52.222;21.246;2022-09-13T16:42:11;9.15;;;6.25;;
22660;SDS011;11497;52.222;21.246;2022-09-13T16:44:41;7.30;;;6.07;;
22660;SDS011;11497;52.222;21.246;2022-09-13T16:47:09;11.63;;;6.65;;
22660;SDS011;11497;52.222;21.246;2022-09-13T16:49:37;9.80;;;6.35;;
22660;SDS011;11497;52.222;21.246;2022-09-13T16:52:05;9.05;;;6.68;;
22660;SDS011;11497;52.222;21.246;2022-09-13T16:54:35;8.15;;;6.43;;
22660;SDS011;11497;52.222;21.246;2022-09-13T16:57:03;8.70;;;6.25;;
22660;SDS011;11497;52.222;21.246;2022-09-13T16:59:32;9.75;;;6.40;;
22660;SDS011;11497;52.222;21.246;2022-09-13T17:02:00;7.35;;;6.30;;
22660;SDS011;11497;52.222;21.246;2022-09-13T17:04:29;11.75;;;6.90;;
22660;SDS011;11497;52.222;21.246;2022-09-13T17:06:57;9.68;;;6.88;;
22660;SDS011;11497;52.222;21.246;2022-09-13T17:09:27;9.57;;;6.90;;
22660;SDS011;11497;52.222;21.246;2022-09-13T17:11:56;11.18;;;6.20;;
22660;SDS011;11497;52.222;21.246;2022-09-13T17:14:24;9.35;;;6.78;;
22660;SDS011;11497;52.222;21.246;2022-09-13T17:16:54;7.70;;;6.38;;
22660;SDS011;11497;52.222;21.246;2022-09-13T17:19:24;10.27;;;6.55;;
22660;SDS011;11497;52.222;21.246;2022-09-13T17:21:56;9.50;;;6.80;;
22660;SDS011;11497;52.222;21.246;2022-09-13T17:24:24;9.52;;;6.72;;
22660;SDS011;11497;52.222;21.246;2022-09-13T17:26:53;10.88;;;6.72;;
22660;SDS011;11497;52.222;21.246;2022-09-13T17:29:22;8.70;;;6.70;;
22660;SDS011;11497;52.222;21.246;2022-09-13T17:31:51;9.02;;;6.72;;
22660;SDS011;11497;52.222;21.246;2022-09-13T17:34:19;9.50;;;7.28;;
22660;SDS011;11497;52.222;21.246;2022-09-13T17:36:46;7.57;;;6.35;;
22660;SDS011;11497;52.222;21.246;2022-09-13T17:39:17;7.82;;;6.97;;
22660;SDS011;11497;52.222;21.246;2022-09-13T17:41:45;15.40;;;7.22;;
22660;SDS011;11497;52.222;21.246;2022-09-13T17:44:19;12.30;;;7.20;;
22660;SDS011;11497;52.222;21.246;2022-09-13T17:46:46;10.82;;;7.75;;
22660;SDS011;11497;52.222;21.246;2022-09-13T17:49:14;9.95;;;7.57;;
22660;SDS011;11497;52.222;21.246;2022-09-13T17:51:42;12.07;;;8.57;;
22660;SDS011;11497;52.222;21.246;2022-09-13T17:54:10;8.80;;;7.70;;
22660;SDS011;11497;52.222;21.246;2022-09-13T17:56:40;7.97;;;7.18;;
22660;SDS011;11497;52.222;21.246;2022-09-13T18:01:39;8.38;;;7.00;;
22660;SDS011;11497;52.222;21.246;2022-09-13T18:04:09;9.77;;;7.30;;
22660;SDS011;11497;52.222;21.246;2022-09-13T18:06:38;9.65;;;7.47;;
22660;SDS011;11497;52.222;21.246;2022-09-13T18:09:08;10.13;;;7.85;;
22660;SDS011;11497;52.222;21.246;2022-09-13T18:11:37;10.80;;;7.63;;
22660;SDS011;11497;52.222;21.246;2022-09-13T18:14:06;9.45;;;7.40;;
22660;SDS011;11497;52.222;21.246;2022-09-13T18:16:41;10.20;;;7.20;;
22660;SDS011;11497;52.222;21.246;2022-09-13T18:19:10;8.48;;;7.35;;
22660;SDS011;11497;52.222;21.246;2022-09-13T18:21:39;11.85;;;7.07;;
22660;SDS011;11497;52.222;21.246;2022-09-13T18:24:06;9.80;;;7.20;;
22660;SDS011;11497;52.222;21.246;2022-09-13T18:26:34;12.73;;;7.88;;
22660;SDS011;11497;52.222;21.246;2022-09-13T18:29:04;12.75;;;7.93;;
22660;SDS011;11497;52.222;21.246;2022-09-13T18:31:38;9.75;;;7.60;;
22660;SDS011;11497;52.222;21.246;2022-09-13T18:34:09;11.15;;;7.03;;
22660;SDS011;11497;52.222;21.246;2022-09-13T18:36:38;8.73;;;7.70;;
22660;SDS011;11497;52.222;21.246;2022-09-13T18:39:11;13.82;;;8.10;;
22660;SDS011;11497;52.222;21.246;2022-09-13T18:41:42;12.35;;;8.27;;
22660;SDS011;11497;52.222;21.246;2022-09-13T18:44:13;9.30;;;7.90;;
22660;SDS011;11497;52.222;21.246;2022-09-13T18:46:42;9.38;;;8.07;;
22660;SDS011;11497;52.222;21.246;2022-09-13T18:49:11;10.25;;;8.57;;
22660;SDS011;11497;52.222;21.246;2022-09-13T18:51:41;11.55;;;8.15;;
22660;SDS011;11497;52.222;21.246;2022-09-13T18:54:11;10.55;;;8.30;;
22660;SDS011;11497;52.222;21.246;2022-09-13T18:56:44;12.52;;;9.00;;
22660;SDS011;11497;52.222;21.246;2022-09-13T18:59:13;10.68;;;8.75;;